sensor_id;sensor_type;location;lat;lon;timestamp;P1;durP1;ratioP1;P2;durP2;ratioP2
14738;SDS011;7461;52.440;13.540;2022-08-16T00:00:31;28.77;;;26.92;;
14738;SDS011;7461;52.440;13.540;2022-08-16T00:03:00;25.42;;;23.98;;
14738;SDS011;7461;52.440;13.540;2022-08-16T00:05:28;27.08;;;25.30;;
14738;SDS011;7461;52.440;13.540;2022-08-16T00:07:55;24.77;;;23.35;;
14738;SDS011;7461;52.440;13.540;2022-08-16T00:10:23;28.05;;;26.35;;
14738;SDS011;7461;52.440;13.540;2022-08-16T00:12:53;24.77;;;23.38;;
14738;SDS011;7461;52.440;13.540;2022-08-16T00:15:23;27.73;;;25.95;;
14738;SDS011;7461;52.440;13.540;2022-08-16T00:17:52;26.70;;;25.10;;
14738;SDS011;7461;52.440;13.540;2022-08-16T00:20:19;25.38;;;23.80;;
14738;SDS011;7461;52.440;13.540;2022-08-16T00:22:48;27.08;;;25.33;;
14738;SDS011;7461;52.440;13.540;2022-08-16T00:25:18;27.73;;;25.92;;
14738;SDS011;7461;52.440;13.540;2022-08-16T00:27:46;25.85;;;24.25;;
14738;SDS011;7461;52.440;13.540;2022-08-16T00:30:15;26.17;;;24.50;;
14738;SDS011;7461;52.440;13.540;2022-08-16T00:32:45;28.55;;;26.90;;
14738;SDS011;7461;52.440;13.540;2022-08-16T00:35:13;28.58;;;26.83;;
14738;SDS011;7461;52.440;13.540;2022-08-16T00:37:48;25.58;;;23.73;;
14738;SDS011;7461;52.440;13.540;2022-08-16T00:40:17;26.33;;;24.73;;
14738;SDS011;7461;52.440;13.540;2022-08-16T00:42:46;27.27;;;25.50;;
14738;SDS011;7461;52.440;13.540;2022-08-16T00:45:22;26.27;;;24.52;;
14738;SDS011;7461;52.440;13.540;2022-08-16T00:47:56;27.00;;;25.40;;
14738;SDS011;7461;52.440;13.540;2022-08-16T00:50:25;25.60;;;23.90;;
14738;SDS011;7461;52.440;13.540;2022-08-16T00:52:54;24.83;;;23.13;;
14738;SDS011;7461;52.440;13.540;2022-08-16T00:55:27;26.73;;;24.95;;
14738;SDS011;7461;52.440;13.540;2022-08-16T00:57:55;26.60;;;25.05;;
14738;SDS011;7461;52.440;13.540;2022-08-16T01:00:25;28.40;;;26.55;;
14738;SDS011;7461;52.440;13.540;2022-08-16T01:02:56;25.15;;;23.75;;
14738;SDS011;7461;52.440;13.540;2022-08-16T01:05:25;27.15;;;25.45;;
14738;SDS011;7461;52.440;13.540;2022-08-16T01:07:52;27.48;;;25.58;;
14738;SDS011;7461;52.440;13.540;2022-08-16T01:10:21;26.85;;;25.20;;
14738;SDS011;7461;52.440;13.540;2022-08-16T01:13:05;25.63;;;24.17;;
14738;SDS011;7461;52.440;13.540;2022-08-16T01:15:36;26.98;;;25.38;;
14738;SDS011;7461;52.440;13.540;2022-08-16T01:18:06;25.73;;;24.20;;
14738;SDS011;7461;52.440;13.540;2022-08-16T01:20:49;25.60;;;24.10;;
14738;SDS011;7461;52.440;13.540;2022-08-16T01:23:23;28.50;;;26.70;;
14738;SDS011;7461;52.440;13.540;2022-08-16T01:25:58;26.25;;;24.48;;
14738;SDS011;7461;52.440;13.540;2022-08-16T01:28:25;27.25;;;25.58;;
14738;SDS011;7461;52.440;13.540;2022-08-16T01:30:55;28.13;;;26.35;;
14738;SDS011;7461;52.440;13.540;2022-08-16T01:33:38;26.58;;;24.83;;
14738;SDS011;7461;52.440;13.540;2022-08-16T01:36:12;26.70;;;25.10;;
14738;SDS011;7461;52.440;13.540;2022-08-16T01:38:40;29.05;;;27.40;;
14738;SDS011;7461;52.440;13.540;2022-08-16T01:41:11;28.50;;;26.75;;
14738;SDS011;7461;52.440;13.540;2022-08-16T01:43:40;27.98;;;26.38;;
14738;SDS011;7461;52.440;13.540;2022-08-16T01:46:16;27.95;;;26.35;;
14738;SDS011;7461;52.440;13.540;2022-08-16T01:48:47;28.48;;;26.88;;
14738;SDS011;7461;52.440;13.540;2022-08-16T01:51:15;29.30;;;27.40;;
14738;SDS011;7461;52.440;13.540;2022-08-16T01:53:44;26.77;;;25.08;;
14738;SDS011;7461;52.440;13.540;2022-08-16T01:56:12;28.50;;;26.52;;
14738;SDS011;7461;52.440;13.540;2022-08-16T01:58:39;28.52;;;26.73;;
14738;SDS011;7461;52.440;13.540;2022-08-16T02:01:06;25.92;;;24.33;;
14738;SDS011;7461;52.440;13.540;2022-08-16T02:03:33;27.05;;;25.15;;
14738;SDS011;7461;52.440;13.540;2022-08-16T02:06:00;26.00;;;24.50;;
14738;SDS011;7461;52.440;13.540;2022-08-16T02:08:27;27.58;;;25.98;;
14738;SDS011;7461;52.440;13.540;2022-08-16T02:10:54;29.00;;;27.17;;
14738;SDS011;7461;52.440;13.540;2022-08-16T02:13:22;27.85;;;26.15;;
14738;SDS011;7461;52.440;13.540;2022-08-16T02:15:49;28.85;;;26.80;;
14738;SDS011;7461;52.440;13.540;2022-08-16T02:18:17;28.13;;;26.52;;
14738;SDS011;7461;52.440;13.540;2022-08-16T02:20:45;30.73;;;28.52;;
14738;SDS011;7461;52.440;13.540;2022-08-16T02:23:15;28.63;;;26.83;;
14738;SDS011;7461;52.440;13.540;2022-08-16T02:25:43;27.92;;;26.10;;
14738;SDS011;7461;52.440;13.540;2022-08-16T02:28:12;29.08;;;27.17;;
14738;SDS011;7461;52.440;13.540;2022-08-16T02:30:40;27.52;;;25.83;;
14738;SDS011;7461;52.440;13.540;2022-08-16T02:33:08;28.73;;;27.00;;
14738;SDS011;7461;52.440;13.540;2022-08-16T02:35:36;30.45;;;28.20;;
14738;SDS011;7461;52.440;13.540;2022-08-16T02:38:03;28.15;;;26.25;;
14738;SDS011;7461;52.440;13.540;2022-08-16T02:40:31;27.65;;;26.05;;
14738;SDS011;7461;52.440;13.540;2022-08-16T02:42:58;31.23;;;29.33;;
14738;SDS011;7461;52.440;13.540;2022-08-16T02:45:26;28.98;;;27.27;;
14738;SDS011;7461;52.440;13.540;2022-08-16T02:47:54;28.10;;;26.40;;
14738;SDS011;7461;52.440;13.540;2022-08-16T02:50:23;30.23;;;28.40;;
14738;SDS011;7461;52.440;13.540;2022-08-16T02:52:50;29.95;;;27.85;;
14738;SDS011;7461;52.440;13.540;2022-08-16T02:55:17;29.13;;;27.23;;
14738;SDS011;7461;52.440;13.540;2022-08-16T02:57:44;30.23;;;28.13;;
14738;SDS011;7461;52.440;13.540;2022-08-16T03:00:11;31.73;;;29.67;;
14738;SDS011;7461;52.440;13.540;2022-08-16T03:02:40;29.30;;;27.30;;
14738;SDS011;7461;52.440;13.540;2022-08-16T03:05:10;29.67;;;27.90;;
14738;SDS011;7461;52.440;13.540;2022-08-16T03:07:39;28.50;;;26.85;;
14738;SDS011;7461;52.440;13.540;2022-08-16T03:10:11;28.40;;;26.60;;
14738;SDS011;7461;52.440;13.540;2022-08-16T03:12:39;26.75;;;25.05;;
14738;SDS011;7461;52.440;13.540;2022-08-16T03:15:09;32.05;;;30.15;;
14738;SDS011;7461;52.440;13.540;2022-08-16T03:17:37;29.17;;;27.27;;
14738;SDS011;7461;52.440;13.540;2022-08-16T03:20:05;30.08;;;28.10;;
14738;SDS011;7461;52.440;13.540;2022-08-16T03:22:35;28.77;;;26.98;;
14738;SDS011;7461;52.440;13.540;2022-08-16T03:25:03;29.08;;;27.38;;
14738;SDS011;7461;52.440;13.540;2022-08-16T03:27:32;30.95;;;29.15;;
14738;SDS011;7461;52.440;13.540;2022-08-16T03:30:01;28.30;;;26.60;;
14738;SDS011;7461;52.440;13.540;2022-08-16T03:32:30;30.35;;;28.25;;
14738;SDS011;7461;52.440;13.540;2022-08-16T03:34:57;29.05;;;27.30;;
14738;SDS011;7461;52.440;13.540;2022-08-16T03:37:24;31.08;;;28.92;;
14738;SDS011;7461;52.440;13.540;2022-08-16T03:39:52;27.70;;;25.85;;
14738;SDS011;7461;52.440;13.540;2022-08-16T03:42:19;28.55;;;26.70;;
14738;SDS011;7461;52.440;13.540;2022-08-16T03:44:46;28.65;;;27.02;;
14738;SDS011;7461;52.440;13.540;2022-08-16T03:47:13;29.30;;;27.50;;
14738;SDS011;7461;52.440;13.540;2022-08-16T03:49:41;29.20;;;27.27;;
14738;SDS011;7461;52.440;13.540;2022-08-16T03:52:07;26.05;;;24.42;;
14738;SDS011;7461;52.440;13.540;2022-08-16T03:54:35;28.05;;;26.35;;
14738;SDS011;7461;52.440;13.540;2022-08-16T03:57:03;29.00;;;27.20;;
14738;SDS011;7461;52.440;13.540;2022-08-16T03:59:31;28.08;;;26.33;;
14738;SDS011;7461;52.440;13.540;2022-08-16T04:01:57;28.08;;;26.27;;
14738;SDS011;7461;52.440;13.540;2022-08-16T04:04:25;28.05;;;26.27;;
14738;SDS011;7461;52.440;13.540;2022-08-16T04:06:52;31.50;;;29.42;;
14738;SDS011;7461;52.440;13.540;2022-08-16T04:09:18;29.85;;;27.90;;
14738;SDS011;7461;52.440;13.540;2022-08-16T04:11:45;30.15;;;28.17;;
14738;SDS011;7461;52.440;13.540;2022-08-16T04:14:14;31.23;;;28.98;;
14738;SDS011;7461;52.440;13.540;2022-08-16T04:16:41;29.73;;;27.90;;
14738;SDS011;7461;52.440;13.540;2022-08-16T04:19:07;30.45;;;28.63;;
14738;SDS011;7461;52.440;13.540;2022-08-16T04:21:34;32.10;;;30.10;;
14738;SDS011;7461;52.440;13.540;2022-08-16T04:24:02;30.70;;;28.67;;
14738;SDS011;7461;52.440;13.540;2022-08-16T04:26:30;30.13;;;28.33;;
14738;SDS011;7461;52.440;13.540;2022-08-16T04:28:57;33.45;;;31.35;;
14738;SDS011;7461;52.440;13.540;2022-08-16T04:31:26;31.55;;;29.42;;
14738;SDS011;7461;52.440;13.540;2022-08-16T04:33:53;31.92;;;29.85;;
14738;SDS011;7461;52.440;13.540;2022-08-16T04:36:23;30.38;;;28.45;;
14738;SDS011;7461;52.440;13.540;2022-08-16T04:38:51;31.02;;;28.95;;
14738;SDS011;7461;52.440;13.540;2022-08-16T04:41:18;30.23;;;28.42;;
14738;SDS011;7461;52.440;13.540;2022-08-16T04:43:45;31.92;;;30.00;;
14738;SDS011;7461;52.440;13.540;2022-08-16T04:46:12;30.15;;;28.20;;
14738;SDS011;7461;52.440;13.540;2022-08-16T04:48:42;32.60;;;30.50;;
14738;SDS011;7461;52.440;13.540;2022-08-16T04:51:09;32.17;;;29.98;;
14738;SDS011;7461;52.440;13.540;2022-08-16T04:53:36;32.40;;;30.20;;
14738;SDS011;7461;52.440;13.540;2022-08-16T04:56:03;34.67;;;32.58;;
14738;SDS011;7461;52.440;13.540;2022-08-16T04:58:31;32.90;;;30.85;;
14738;SDS011;7461;52.440;13.540;2022-08-16T05:00:58;34.85;;;32.83;;
14738;SDS011;7461;52.440;13.540;2022-08-16T05:03:25;34.85;;;32.65;;
14738;SDS011;7461;52.440;13.540;2022-08-16T05:05:54;36.95;;;34.67;;
14738;SDS011;7461;52.440;13.540;2022-08-16T05:08:23;37.25;;;34.85;;
14738;SDS011;7461;52.440;13.540;2022-08-16T05:10:50;35.95;;;33.85;;
14738;SDS011;7461;52.440;13.540;2022-08-16T05:13:18;36.25;;;33.95;;
14738;SDS011;7461;52.440;13.540;2022-08-16T05:15:45;32.67;;;30.45;;
14738;SDS011;7461;52.440;13.540;2022-08-16T05:18:13;34.95;;;32.53;;
14738;SDS011;7461;52.440;13.540;2022-08-16T05:20:40;35.50;;;33.03;;
14738;SDS011;7461;52.440;13.540;2022-08-16T05:23:08;35.42;;;33.10;;
14738;SDS011;7461;52.440;13.540;2022-08-16T05:25:35;36.10;;;33.75;;
14738;SDS011;7461;52.440;13.540;2022-08-16T05:28:02;38.33;;;35.55;;
14738;SDS011;7461;52.440;13.540;2022-08-16T05:30:29;37.22;;;34.67;;
14738;SDS011;7461;52.440;13.540;2022-08-16T05:32:56;38.65;;;36.35;;
14738;SDS011;7461;52.440;13.540;2022-08-16T05:35:23;36.83;;;34.53;;
14738;SDS011;7461;52.440;13.540;2022-08-16T05:37:51;35.45;;;33.25;;
14738;SDS011;7461;52.440;13.540;2022-08-16T05:40:19;37.00;;;34.58;;
14738;SDS011;7461;52.440;13.540;2022-08-16T05:42:46;36.28;;;33.88;;
14738;SDS011;7461;52.440;13.540;2022-08-16T05:45:13;35.05;;;32.65;;
14738;SDS011;7461;52.440;13.540;2022-08-16T05:47:40;35.63;;;33.35;;
14738;SDS011;7461;52.440;13.540;2022-08-16T05:50:08;37.58;;;35.13;;
14738;SDS011;7461;52.440;13.540;2022-08-16T05:52:35;38.90;;;36.00;;
14738;SDS011;7461;52.440;13.540;2022-08-16T05:55:02;39.17;;;36.28;;
14738;SDS011;7461;52.440;13.540;2022-08-16T05:57:30;37.95;;;35.10;;
14738;SDS011;7461;52.440;13.540;2022-08-16T05:59:57;39.40;;;36.85;;
14738;SDS011;7461;52.440;13.540;2022-08-16T06:02:24;39.70;;;36.97;;
14738;SDS011;7461;52.440;13.540;2022-08-16T06:04:54;39.78;;;36.92;;
14738;SDS011;7461;52.440;13.540;2022-08-16T06:07:21;34.17;;;32.00;;
14738;SDS011;7461;52.440;13.540;2022-08-16T06:09:48;38.13;;;35.63;;
14738;SDS011;7461;52.440;13.540;2022-08-16T06:12:15;42.22;;;39.15;;
14738;SDS011;7461;52.440;13.540;2022-08-16T06:14:43;39.13;;;36.53;;
14738;SDS011;7461;52.440;13.540;2022-08-16T06:17:10;37.15;;;34.13;;
14738;SDS011;7461;52.440;13.540;2022-08-16T06:19:40;37.38;;;34.58;;
14738;SDS011;7461;52.440;13.540;2022-08-16T06:22:07;34.17;;;31.95;;
14738;SDS011;7461;52.440;13.540;2022-08-16T06:24:34;37.45;;;34.67;;
14738;SDS011;7461;52.440;13.540;2022-08-16T06:27:02;37.30;;;34.40;;
14738;SDS011;7461;52.440;13.540;2022-08-16T06:29:29;35.95;;;33.75;;
14738;SDS011;7461;52.440;13.540;2022-08-16T06:31:57;36.03;;;33.72;;
14738;SDS011;7461;52.440;13.540;2022-08-16T06:34:24;37.97;;;35.58;;
14738;SDS011;7461;52.440;13.540;2022-08-16T06:36:51;33.55;;;31.23;;
14738;SDS011;7461;52.440;13.540;2022-08-16T06:39:18;33.80;;;31.80;;
14738;SDS011;7461;52.440;13.540;2022-08-16T06:41:45;32.65;;;30.52;;
14738;SDS011;7461;52.440;13.540;2022-08-16T06:44:12;34.53;;;31.67;;
14738;SDS011;7461;52.440;13.540;2022-08-16T06:46:39;33.35;;;31.00;;
14738;SDS011;7461;52.440;13.540;2022-08-16T06:49:08;31.48;;;29.52;;
14738;SDS011;7461;52.440;13.540;2022-08-16T06:51:36;31.42;;;29.48;;
14738;SDS011;7461;52.440;13.540;2022-08-16T06:54:05;33.90;;;31.30;;
14738;SDS011;7461;52.440;13.540;2022-08-16T06:56:33;31.38;;;29.48;;
14738;SDS011;7461;52.440;13.540;2022-08-16T06:59:00;29.33;;;27.55;;
14738;SDS011;7461;52.440;13.540;2022-08-16T07:01:28;29.10;;;27.30;;
14738;SDS011;7461;52.440;13.540;2022-08-16T07:03:55;30.27;;;28.30;;
14738;SDS011;7461;52.440;13.540;2022-08-16T07:06:25;27.95;;;26.17;;
14738;SDS011;7461;52.440;13.540;2022-08-16T07:08:55;26.83;;;24.92;;
14738;SDS011;7461;52.440;13.540;2022-08-16T07:11:22;27.52;;;25.80;;
14738;SDS011;7461;52.440;13.540;2022-08-16T07:13:50;26.25;;;24.75;;
14738;SDS011;7461;52.440;13.540;2022-08-16T07:16:18;24.92;;;23.48;;
14738;SDS011;7461;52.440;13.540;2022-08-16T07:18:46;26.10;;;24.60;;
14738;SDS011;7461;52.440;13.540;2022-08-16T07:21:13;25.45;;;23.95;;
14738;SDS011;7461;52.440;13.540;2022-08-16T07:23:41;24.40;;;22.92;;
14738;SDS011;7461;52.440;13.540;2022-08-16T07:26:17;26.20;;;24.70;;
14738;SDS011;7461;52.440;13.540;2022-08-16T07:28:46;24.17;;;22.77;;
14738;SDS011;7461;52.440;13.540;2022-08-16T07:31:13;26.80;;;25.13;;
14738;SDS011;7461;52.440;13.540;2022-08-16T07:33:41;28.00;;;26.13;;
14738;SDS011;7461;52.440;13.540;2022-08-16T07:36:10;26.63;;;25.02;;
14738;SDS011;7461;52.440;13.540;2022-08-16T07:38:39;25.08;;;23.65;;
14738;SDS011;7461;52.440;13.540;2022-08-16T07:41:08;27.02;;;25.45;;
14738;SDS011;7461;52.440;13.540;2022-08-16T07:43:35;26.65;;;24.83;;
14738;SDS011;7461;52.440;13.540;2022-08-16T07:46:02;28.90;;;27.08;;
14738;SDS011;7461;52.440;13.540;2022-08-16T07:48:29;25.55;;;24.05;;
14738;SDS011;7461;52.440;13.540;2022-08-16T07:50:56;25.60;;;24.10;;
14738;SDS011;7461;52.440;13.540;2022-08-16T07:53:23;26.48;;;24.65;;
14738;SDS011;7461;52.440;13.540;2022-08-16T07:55:50;24.60;;;22.83;;
14738;SDS011;7461;52.440;13.540;2022-08-16T07:58:19;26.10;;;24.52;;
14738;SDS011;7461;52.440;13.540;2022-08-16T08:00:46;26.00;;;24.30;;
14738;SDS011;7461;52.440;13.540;2022-08-16T08:03:12;27.33;;;25.52;;
14738;SDS011;7461;52.440;13.540;2022-08-16T08:05:39;24.90;;;23.40;;
14738;SDS011;7461;52.440;13.540;2022-08-16T08:08:06;22.98;;;21.48;;
14738;SDS011;7461;52.440;13.540;2022-08-16T08:10:33;22.55;;;21.13;;
14738;SDS011;7461;52.440;13.540;2022-08-16T08:13:00;22.40;;;21.10;;
14738;SDS011;7461;52.440;13.540;2022-08-16T08:15:28;23.63;;;22.30;;
14738;SDS011;7461;52.440;13.540;2022-08-16T08:17:55;21.52;;;20.23;;
14738;SDS011;7461;52.440;13.540;2022-08-16T08:20:22;21.73;;;20.30;;
14738;SDS011;7461;52.440;13.540;2022-08-16T08:22:51;23.92;;;22.65;;
14738;SDS011;7461;52.440;13.540;2022-08-16T08:25:19;20.63;;;19.42;;
14738;SDS011;7461;52.440;13.540;2022-08-16T08:27:46;22.48;;;21.27;;
14738;SDS011;7461;52.440;13.540;2022-08-16T08:30:13;20.15;;;18.98;;
14738;SDS011;7461;52.440;13.540;2022-08-16T08:32:41;21.88;;;20.67;;
14738;SDS011;7461;52.440;13.540;2022-08-16T08:35:08;20.00;;;18.80;;
14738;SDS011;7461;52.440;13.540;2022-08-16T08:37:37;20.23;;;19.17;;
14738;SDS011;7461;52.440;13.540;2022-08-16T08:40:04;18.63;;;17.63;;
14738;SDS011;7461;52.440;13.540;2022-08-16T08:42:34;18.10;;;17.02;;
14738;SDS011;7461;52.440;13.540;2022-08-16T08:45:01;19.63;;;18.50;;
14738;SDS011;7461;52.440;13.540;2022-08-16T08:47:28;17.17;;;16.23;;
14738;SDS011;7461;52.440;13.540;2022-08-16T08:49:57;17.08;;;16.08;;
14738;SDS011;7461;52.440;13.540;2022-08-16T08:52:24;18.55;;;17.45;;
14738;SDS011;7461;52.440;13.540;2022-08-16T08:54:51;18.65;;;17.58;;
14738;SDS011;7461;52.440;13.540;2022-08-16T08:57:19;16.30;;;15.13;;
14738;SDS011;7461;52.440;13.540;2022-08-16T08:59:46;17.02;;;15.88;;
14738;SDS011;7461;52.440;13.540;2022-08-16T09:02:13;17.48;;;16.55;;
14738;SDS011;7461;52.440;13.540;2022-08-16T09:04:41;16.40;;;15.45;;
14738;SDS011;7461;52.440;13.540;2022-08-16T09:07:09;15.20;;;14.32;;
14738;SDS011;7461;52.440;13.540;2022-08-16T09:09:37;17.58;;;16.30;;
14738;SDS011;7461;52.440;13.540;2022-08-16T09:12:04;14.90;;;14.10;;
14738;SDS011;7461;52.440;13.540;2022-08-16T09:14:32;15.75;;;14.90;;
14738;SDS011;7461;52.440;13.540;2022-08-16T09:16:59;15.45;;;14.65;;
14738;SDS011;7461;52.440;13.540;2022-08-16T09:19:26;14.93;;;14.13;;
14738;SDS011;7461;52.440;13.540;2022-08-16T09:21:54;17.15;;;16.15;;
14738;SDS011;7461;52.440;13.540;2022-08-16T09:24:23;18.50;;;17.30;;
14738;SDS011;7461;52.440;13.540;2022-08-16T09:26:50;16.60;;;15.70;;
14738;SDS011;7461;52.440;13.540;2022-08-16T09:29:16;15.60;;;14.70;;
14738;SDS011;7461;52.440;13.540;2022-08-16T09:31:44;14.98;;;14.18;;
14738;SDS011;7461;52.440;13.540;2022-08-16T09:34:11;12.10;;;11.30;;
14738;SDS011;7461;52.440;13.540;2022-08-16T09:36:38;15.30;;;14.50;;
14738;SDS011;7461;52.440;13.540;2022-08-16T09:39:05;12.07;;;11.38;;
14738;SDS011;7461;52.440;13.540;2022-08-16T09:41:33;13.43;;;12.73;;
14738;SDS011;7461;52.440;13.540;2022-08-16T09:44:00;13.45;;;12.68;;
14738;SDS011;7461;52.440;13.540;2022-08-16T09:46:28;13.45;;;12.68;;
14738;SDS011;7461;52.440;13.540;2022-08-16T09:48:55;13.95;;;13.05;;
14738;SDS011;7461;52.440;13.540;2022-08-16T09:51:23;12.43;;;11.73;;
14738;SDS011;7461;52.440;13.540;2022-08-16T09:53:52;13.30;;;12.30;;
14738;SDS011;7461;52.440;13.540;2022-08-16T09:56:23;13.93;;;13.02;;
14738;SDS011;7461;52.440;13.540;2022-08-16T09:58:54;12.57;;;11.75;;
14738;SDS011;7461;52.440;13.540;2022-08-16T10:01:21;11.48;;;10.88;;
14738;SDS011;7461;52.440;13.540;2022-08-16T10:03:48;14.30;;;13.50;;
14738;SDS011;7461;52.440;13.540;2022-08-16T10:06:16;15.20;;;14.20;;
14738;SDS011;7461;52.440;13.540;2022-08-16T10:08:43;14.40;;;13.60;;
14738;SDS011;7461;52.440;13.540;2022-08-16T10:11:10;11.50;;;10.80;;
14738;SDS011;7461;52.440;13.540;2022-08-16T10:14:07;11.40;;;10.70;;
14738;SDS011;7461;52.440;13.540;2022-08-16T10:16:34;11.15;;;10.63;;
14738;SDS011;7461;52.440;13.540;2022-08-16T10:19:01;11.00;;;10.45;;
14738;SDS011;7461;52.440;13.540;2022-08-16T10:21:28;10.98;;;10.32;;
14738;SDS011;7461;52.440;13.540;2022-08-16T10:23:56;10.93;;;10.32;;
14738;SDS011;7461;52.440;13.540;2022-08-16T10:26:23;11.07;;;10.38;;
14738;SDS011;7461;52.440;13.540;2022-08-16T10:28:50;11.30;;;10.73;;
14738;SDS011;7461;52.440;13.540;2022-08-16T10:31:18;12.30;;;11.60;;
14738;SDS011;7461;52.440;13.540;2022-08-16T10:33:45;12.13;;;11.50;;
14738;SDS011;7461;52.440;13.540;2022-08-16T10:36:12;13.98;;;12.98;;
14738;SDS011;7461;52.440;13.540;2022-08-16T10:38:39;14.10;;;13.07;;
14738;SDS011;7461;52.440;13.540;2022-08-16T10:41:07;14.02;;;13.23;;
14738;SDS011;7461;52.440;13.540;2022-08-16T10:43:36;12.73;;;12.00;;
14738;SDS011;7461;52.440;13.540;2022-08-16T10:46:05;11.02;;;10.27;;
14738;SDS011;7461;52.440;13.540;2022-08-16T10:48:35;18.08;;;17.10;;
14738;SDS011;7461;52.440;13.540;2022-08-16T10:51:02;14.25;;;13.40;;
14738;SDS011;7461;52.440;13.540;2022-08-16T10:53:29;11.65;;;10.77;;
14738;SDS011;7461;52.440;13.540;2022-08-16T10:55:57;11.38;;;10.50;;
14738;SDS011;7461;52.440;13.540;2022-08-16T10:58:25;8.90;;;8.48;;
14738;SDS011;7461;52.440;13.540;2022-08-16T11:00:53;9.13;;;8.48;;
14738;SDS011;7461;52.440;13.540;2022-08-16T11:03:20;8.90;;;8.40;;
14738;SDS011;7461;52.440;13.540;2022-08-16T11:05:48;11.18;;;10.55;;
14738;SDS011;7461;52.440;13.540;2022-08-16T11:08:15;10.90;;;10.30;;
14738;SDS011;7461;52.440;13.540;2022-08-16T11:10:43;9.93;;;9.32;;
14738;SDS011;7461;52.440;13.540;2022-08-16T11:13:12;10.52;;;9.75;;
14738;SDS011;7461;52.440;13.540;2022-08-16T11:15:40;10.38;;;9.77;;
14738;SDS011;7461;52.440;13.540;2022-08-16T11:18:08;12.07;;;11.30;;
14738;SDS011;7461;52.440;13.540;2022-08-16T11:20:36;10.88;;;10.18;;
14738;SDS011;7461;52.440;13.540;2022-08-16T11:23:05;11.43;;;10.45;;
14738;SDS011;7461;52.440;13.540;2022-08-16T11:25:32;10.25;;;9.75;;
14738;SDS011;7461;52.440;13.540;2022-08-16T11:28:00;9.88;;;9.27;;
14738;SDS011;7461;52.440;13.540;2022-08-16T11:30:29;10.02;;;9.52;;
14738;SDS011;7461;52.440;13.540;2022-08-16T11:32:57;10.48;;;9.88;;
14738;SDS011;7461;52.440;13.540;2022-08-16T11:35:26;9.15;;;8.68;;
14738;SDS011;7461;52.440;13.540;2022-08-16T11:37:55;9.40;;;8.80;;
14738;SDS011;7461;52.440;13.540;2022-08-16T11:40:25;10.65;;;10.00;;
14738;SDS011;7461;52.440;13.540;2022-08-16T11:42:55;9.52;;;8.93;;
14738;SDS011;7461;52.440;13.540;2022-08-16T11:45:22;10.13;;;9.52;;
14738;SDS011;7461;52.440;13.540;2022-08-16T11:47:50;10.48;;;9.88;;
14738;SDS011;7461;52.440;13.540;2022-08-16T11:50:16;9.25;;;8.75;;
14738;SDS011;7461;52.440;13.540;2022-08-16T11:52:43;9.60;;;9.07;;
14738;SDS011;7461;52.440;13.540;2022-08-16T11:55:11;9.40;;;9.00;;
14738;SDS011;7461;52.440;13.540;2022-08-16T11:57:39;9.07;;;8.48;;
14738;SDS011;7461;52.440;13.540;2022-08-16T12:00:10;9.13;;;8.60;;
14738;SDS011;7461;52.440;13.540;2022-08-16T12:02:40;9.25;;;8.40;;
14738;SDS011;7461;52.440;13.540;2022-08-16T12:05:08;9.48;;;8.98;;
14738;SDS011;7461;52.440;13.540;2022-08-16T12:07:36;10.23;;;9.63;;
14738;SDS011;7461;52.440;13.540;2022-08-16T12:10:04;10.38;;;9.68;;
14738;SDS011;7461;52.440;13.540;2022-08-16T12:12:33;25.88;;;24.25;;
14738;SDS011;7461;52.440;13.540;2022-08-16T12:15:01;11.05;;;10.32;;
14738;SDS011;7461;52.440;13.540;2022-08-16T12:17:29;10.80;;;10.20;;
14738;SDS011;7461;52.440;13.540;2022-08-16T12:19:57;9.82;;;9.13;;
14738;SDS011;7461;52.440;13.540;2022-08-16T12:22:24;10.63;;;10.02;;
14738;SDS011;7461;52.440;13.540;2022-08-16T12:24:51;10.00;;;9.40;;
14738;SDS011;7461;52.440;13.540;2022-08-16T12:27:19;10.15;;;9.65;;
14738;SDS011;7461;52.440;13.540;2022-08-16T12:29:48;11.02;;;10.48;;
14738;SDS011;7461;52.440;13.540;2022-08-16T12:32:16;10.75;;;10.25;;
14738;SDS011;7461;52.440;13.540;2022-08-16T12:34:44;10.18;;;9.45;;
14738;SDS011;7461;52.440;13.540;2022-08-16T12:37:11;10.52;;;9.85;;
14738;SDS011;7461;52.440;13.540;2022-08-16T12:39:39;8.60;;;8.20;;
14738;SDS011;7461;52.440;13.540;2022-08-16T12:42:06;10.48;;;9.98;;
14738;SDS011;7461;52.440;13.540;2022-08-16T12:44:34;11.23;;;10.23;;
14738;SDS011;7461;52.440;13.540;2022-08-16T12:47:00;9.85;;;9.05;;
14738;SDS011;7461;52.440;13.540;2022-08-16T12:49:47;10.00;;;9.35;;
14738;SDS011;7461;52.440;13.540;2022-08-16T12:52:14;9.38;;;8.88;;
14738;SDS011;7461;52.440;13.540;2022-08-16T12:54:41;9.48;;;8.93;;
14738;SDS011;7461;52.440;13.540;2022-08-16T12:57:08;25.48;;;10.73;;
14738;SDS011;7461;52.440;13.540;2022-08-16T12:59:35;10.77;;;10.02;;
14738;SDS011;7461;52.440;13.540;2022-08-16T13:02:03;9.32;;;8.63;;
14738;SDS011;7461;52.440;13.540;2022-08-16T13:04:31;10.10;;;9.30;;
14738;SDS011;7461;52.440;13.540;2022-08-16T13:07:01;8.52;;;7.93;;
14738;SDS011;7461;52.440;13.540;2022-08-16T13:09:29;7.90;;;7.50;;
14738;SDS011;7461;52.440;13.540;2022-08-16T13:12:00;9.80;;;9.15;;
14738;SDS011;7461;52.440;13.540;2022-08-16T13:14:32;10.35;;;9.80;;
14738;SDS011;7461;52.440;13.540;2022-08-16T13:17:02;8.55;;;8.10;;
14738;SDS011;7461;52.440;13.540;2022-08-16T13:19:31;9.55;;;8.90;;
14738;SDS011;7461;52.440;13.540;2022-08-16T13:21:58;9.98;;;9.43;;
14738;SDS011;7461;52.440;13.540;2022-08-16T13:24:26;10.38;;;9.45;;
14738;SDS011;7461;52.440;13.540;2022-08-16T13:26:53;9.18;;;8.68;;
14738;SDS011;7461;52.440;13.540;2022-08-16T13:29:20;9.45;;;8.95;;
14738;SDS011;7461;52.440;13.540;2022-08-16T13:31:47;10.25;;;9.55;;
14738;SDS011;7461;52.440;13.540;2022-08-16T13:34:14;9.45;;;8.95;;
14738;SDS011;7461;52.440;13.540;2022-08-16T13:36:41;10.18;;;9.68;;
14738;SDS011;7461;52.440;13.540;2022-08-16T13:39:09;10.48;;;9.50;;
14738;SDS011;7461;52.440;13.540;2022-08-16T13:41:36;8.68;;;8.07;;
14738;SDS011;7461;52.440;13.540;2022-08-16T13:44:04;9.55;;;9.02;;
14738;SDS011;7461;52.440;13.540;2022-08-16T13:46:32;9.18;;;8.32;;
14738;SDS011;7461;52.440;13.540;2022-08-16T13:48:59;8.50;;;7.65;;
14738;SDS011;7461;52.440;13.540;2022-08-16T13:51:26;7.43;;;7.00;;
14738;SDS011;7461;52.440;13.540;2022-08-16T13:53:58;7.90;;;7.40;;
14738;SDS011;7461;52.440;13.540;2022-08-16T13:56:29;7.57;;;7.18;;
14738;SDS011;7461;52.440;13.540;2022-08-16T13:58:57;6.97;;;6.50;;
14738;SDS011;7461;52.440;13.540;2022-08-16T14:01:25;7.47;;;7.07;;
14738;SDS011;7461;52.440;13.540;2022-08-16T14:03:52;7.13;;;6.63;;
14738;SDS011;7461;52.440;13.540;2022-08-16T14:06:19;7.07;;;6.57;;
14738;SDS011;7461;52.440;13.540;2022-08-16T14:08:46;6.70;;;6.30;;
14738;SDS011;7461;52.440;13.540;2022-08-16T14:11:13;6.45;;;6.07;;
14738;SDS011;7461;52.440;13.540;2022-08-16T14:13:42;6.47;;;6.07;;
14738;SDS011;7461;52.440;13.540;2022-08-16T14:16:10;5.40;;;5.10;;
14738;SDS011;7461;52.440;13.540;2022-08-16T14:18:37;6.38;;;5.88;;
14738;SDS011;7461;52.440;13.540;2022-08-16T14:21:04;7.03;;;6.63;;
14738;SDS011;7461;52.440;13.540;2022-08-16T14:23:31;7.47;;;7.05;;
14738;SDS011;7461;52.440;13.540;2022-08-16T14:25:58;6.32;;;6.03;;
14738;SDS011;7461;52.440;13.540;2022-08-16T14:28:25;6.90;;;6.60;;
14738;SDS011;7461;52.440;13.540;2022-08-16T14:30:53;7.95;;;7.55;;